createdAt,value
2017-08-21T00:00:59.373Z,17.10
2017-08-21T00:03:26.837Z,17.10
2017-08-21T00:05:54.325Z,17.20
2017-08-21T00:08:21.817Z,17.20
2017-08-21T00:10:49.307Z,17.30
2017-08-21T00:13:16.825Z,17.30
2017-08-21T00:15:44.376Z,17.30
2017-08-21T00:18:11.912Z,17.30
2017-08-21T00:20:39.472Z,17.30
2017-08-21T00:23:06.954Z,17.30
2017-08-21T00:25:34.445Z,17.20
2017-08-21T00:28:02.082Z,17.10
2017-08-21T00:30:29.567Z,17.00
2017-08-21T00:32:57.036Z,17.00
2017-08-21T00:35:24.532Z,16.90
2017-08-21T00:37:52.003Z,16.80
2017-08-21T00:40:19.531Z,16.70
2017-08-21T00:42:47.084Z,16.70
2017-08-21T00:45:14.627Z,16.60
2017-08-21T00:47:42.136Z,16.60
2017-08-21T00:50:09.674Z,16.50
2017-08-21T00:52:37.185Z,16.40
2017-08-21T00:55:04.667Z,16.40
2017-08-21T00:57:32.904Z,16.30
2017-08-21T01:00:00.425Z,16.30
2017-08-21T01:02:27.898Z,16.20
2017-08-21T01:04:55.365Z,16.20
2017-08-21T01:07:22.984Z,16.20
2017-08-21T01:09:50.451Z,16.20
2017-08-21T01:12:17.977Z,16.10
2017-08-21T01:14:45.444Z,16.10
2017-08-21T01:17:12.919Z,16.10
2017-08-21T01:19:40.532Z,16.10
2017-08-21T01:22:08.002Z,16.00
2017-08-21T01:24:35.477Z,16.00
2017-08-21T01:27:02.961Z,16.00
2017-08-21T01:29:30.442Z,16.10
2017-08-21T01:31:58.141Z,16.00
2017-08-21T01:34:25.618Z,16.10
2017-08-21T01:36:53.093Z,16.10
2017-08-21T01:39:20.579Z,15.90
2017-08-21T01:41:48.064Z,16.20
2017-08-21T01:44:15.573Z,16.20
2017-08-21T01:46:43.039Z,16.30
2017-08-21T01:49:10.627Z,16.20
2017-08-21T01:51:38.284Z,16.40
2017-08-21T01:54:05.768Z,16.40
2017-08-21T01:56:33.247Z,16.50
2017-08-21T01:59:01.519Z,16.50
2017-08-21T02:01:28.997Z,16.50
2017-08-21T02:03:56.460Z,16.70
2017-08-21T02:06:23.951Z,16.50
2017-08-21T02:08:51.407Z,16.60
2017-08-21T02:11:18.940Z,16.60
2017-08-21T02:13:46.396Z,16.60
2017-08-21T02:16:13.903Z,16.50
2017-08-21T02:18:41.415Z,16.50
2017-08-21T02:21:08.921Z,16.60
2017-08-21T02:23:36.402Z,16.60
2017-08-21T02:26:03.912Z,16.60
2017-08-21T02:28:31.423Z,16.60
2017-08-21T02:30:58.905Z,16.60
2017-08-21T02:33:26.389Z,16.60
2017-08-21T02:35:53.885Z,16.60
2017-08-21T02:38:33.933Z,16.60
2017-08-21T02:41:01.429Z,16.60
2017-08-21T02:43:28.909Z,16.60
2017-08-21T02:45:56.397Z,16.60
2017-08-21T02:48:23.897Z,16.60
2017-08-21T02:50:51.375Z,16.60
2017-08-21T02:53:18.854Z,16.60
2017-08-21T02:55:46.327Z,16.60
2017-08-21T02:58:13.807Z,16.60
2017-08-21T03:00:41.275Z,16.70
2017-08-21T03:03:08.792Z,16.70
2017-08-21T03:05:36.261Z,16.70
2017-08-21T03:08:03.774Z,16.70
2017-08-21T03:10:31.248Z,16.70
2017-08-21T03:12:58.720Z,16.70
2017-08-21T03:15:26.200Z,16.70
2017-08-21T03:17:53.695Z,16.70
2017-08-21T03:20:21.230Z,16.60
2017-08-21T03:22:48.722Z,16.60
2017-08-21T03:25:16.225Z,16.60
2017-08-21T03:27:43.697Z,16.60
2017-08-21T03:30:11.198Z,16.60
2017-08-21T03:32:38.799Z,16.50
2017-08-21T03:35:06.278Z,16.50
2017-08-21T03:37:33.839Z,16.40
2017-08-21T03:40:01.363Z,16.40
2017-08-21T03:42:28.865Z,16.40
2017-08-21T03:44:56.341Z,16.40
2017-08-21T03:47:23.838Z,16.50
2017-08-21T03:49:51.303Z,16.50
2017-08-21T03:52:18.764Z,16.40
2017-08-21T03:54:46.263Z,16.40
2017-08-21T03:57:13.731Z,16.40
2017-08-21T03:59:41.215Z,16.50
2017-08-21T04:02:08.739Z,16.50
2017-08-21T04:04:36.215Z,16.50
2017-08-21T04:07:03.705Z,16.50
2017-08-21T04:09:31.203Z,16.50
2017-08-21T04:11:58.705Z,16.60
2017-08-21T04:14:26.208Z,16.70
2017-08-21T04:16:53.707Z,16.70
2017-08-21T04:19:21.266Z,16.70
2017-08-21T04:21:48.749Z,16.70
2017-08-21T04:24:16.222Z,16.50
2017-08-21T04:26:43.730Z,16.70
2017-08-21T04:29:11.423Z,16.70
2017-08-21T04:31:38.975Z,16.70
2017-08-21T04:34:06.449Z,16.70
2017-08-21T04:36:33.925Z,16.70
2017-08-21T04:39:01.446Z,16.70
2017-08-21T04:41:28.928Z,16.70
2017-08-21T04:43:56.388Z,16.70
2017-08-21T04:46:23.885Z,16.70
2017-08-21T04:48:51.360Z,16.60
2017-08-21T04:51:18.862Z,16.60
2017-08-21T04:53:46.341Z,16.60
2017-08-21T04:56:13.817Z,16.60
2017-08-21T04:58:41.329Z,16.60
2017-08-21T05:01:08.833Z,16.70
2017-08-21T05:03:36.381Z,16.70
2017-08-21T05:06:03.853Z,16.70
2017-08-21T05:08:31.473Z,16.70
2017-08-21T05:10:58.969Z,16.70
2017-08-21T05:13:26.463Z,16.70
2017-08-21T05:15:53.968Z,16.70
2017-08-21T05:18:21.445Z,16.70
2017-08-21T05:20:48.946Z,16.80
2017-08-21T05:23:16.421Z,16.70
2017-08-21T05:25:44.020Z,16.80
2017-08-21T05:28:11.732Z,16.80
2017-08-21T05:30:39.375Z,16.90
2017-08-21T05:33:06.870Z,16.90
2017-08-21T05:35:34.356Z,16.90
2017-08-21T05:38:02.609Z,17.00
2017-08-21T05:40:30.125Z,17.00
2017-08-21T05:42:57.591Z,17.10
2017-08-21T05:45:25.078Z,17.10
2017-08-21T05:47:52.622Z,17.20
2017-08-21T05:50:20.111Z,17.10
2017-08-21T05:52:47.623Z,17.30
2017-08-21T05:55:15.110Z,17.30
2017-08-21T05:57:43.539Z,17.30
2017-08-21T06:00:11.075Z,17.30
2017-08-21T06:02:38.631Z,17.30
2017-08-21T06:05:06.144Z,17.30
2017-08-21T06:07:33.622Z,17.30
2017-08-21T06:10:01.185Z,17.30
2017-08-21T06:12:28.693Z,17.40
2017-08-21T06:14:56.176Z,17.40
2017-08-21T06:17:23.755Z,17.40
2017-08-21T06:19:51.252Z,17.50
2017-08-21T06:22:18.741Z,17.60
2017-08-21T06:24:46.237Z,17.80
2017-08-21T06:27:13.707Z,17.90
2017-08-21T06:29:41.215Z,17.90
2017-08-21T06:32:08.807Z,18.00
2017-08-21T06:34:36.286Z,18.00
2017-08-21T06:37:03.787Z,18.00
2017-08-21T06:39:31.296Z,17.90
2017-08-21T06:41:58.808Z,18.20
2017-08-21T06:44:26.337Z,18.20
2017-08-21T06:46:53.815Z,18.30
2017-08-21T06:49:21.357Z,18.50
2017-08-21T06:51:48.933Z,18.60
2017-08-21T06:54:16.470Z,18.70
2017-08-21T06:56:44.111Z,18.80
2017-08-21T06:59:11.840Z,18.80
2017-08-21T07:01:39.359Z,18.80
2017-08-21T07:04:06.836Z,18.80
2017-08-21T07:06:34.302Z,18.90
2017-08-21T07:09:01.891Z,18.80
2017-08-21T07:11:29.383Z,18.80
2017-08-21T07:13:56.878Z,18.90
2017-08-21T07:16:24.429Z,18.80
2017-08-21T07:18:51.933Z,18.80
2017-08-21T07:21:19.681Z,18.90
2017-08-21T07:23:47.183Z,19.10
2017-08-21T07:26:14.673Z,19.20
2017-08-21T07:28:42.181Z,19.40
2017-08-21T07:31:09.712Z,19.40
2017-08-21T07:33:37.198Z,19.40
2017-08-21T07:36:04.908Z,19.40
2017-08-21T07:38:32.397Z,19.20
2017-08-21T07:40:59.924Z,19.40
2017-08-21T07:43:27.400Z,19.60
2017-08-21T07:45:54.925Z,19.80
2017-08-21T07:48:22.435Z,20.00
2017-08-21T07:50:49.971Z,20.30
2017-08-21T07:53:17.497Z,20.30
2017-08-21T07:55:45.051Z,20.50
2017-08-21T07:58:12.655Z,20.50
2017-08-21T08:00:40.204Z,20.60
2017-08-21T08:03:07.889Z,20.70
2017-08-21T08:05:35.365Z,20.60
2017-08-21T08:08:02.912Z,20.60
2017-08-21T08:10:30.457Z,20.60
2017-08-21T08:12:57.949Z,20.50
2017-08-21T08:15:25.635Z,20.70
2017-08-21T08:17:53.154Z,20.50
2017-08-21T08:20:20.684Z,20.60
2017-08-21T08:22:48.197Z,20.60
2017-08-21T08:25:15.702Z,20.30
2017-08-21T08:27:43.192Z,19.90
2017-08-21T08:30:11.047Z,19.90
2017-08-21T08:32:38.593Z,20.20
2017-08-21T08:35:06.096Z,20.10
2017-08-21T08:37:33.697Z,19.80
2017-08-21T08:40:01.184Z,19.40
2017-08-21T08:42:28.696Z,19.60
2017-08-21T08:44:56.177Z,19.80
2017-08-21T08:47:23.700Z,20.00
2017-08-21T08:49:51.371Z,20.10
2017-08-21T08:52:18.871Z,20.20
2017-08-21T08:54:46.416Z,20.20
2017-08-21T08:57:13.888Z,20.20
2017-08-21T08:59:41.357Z,20.10
2017-08-21T09:02:08.868Z,20.00
2017-08-21T09:04:36.407Z,20.30
2017-08-21T09:07:03.965Z,20.20
2017-08-21T09:09:31.454Z,20.10
2017-08-21T09:11:58.962Z,20.30
2017-08-21T09:14:26.448Z,20.40
2017-08-21T09:16:53.951Z,20.60
2017-08-21T09:19:21.451Z,20.80
2017-08-21T09:21:48.927Z,21.00
2017-08-21T09:24:16.461Z,21.20
2017-08-21T09:26:44.046Z,21.30
2017-08-21T09:29:11.768Z,21.60
2017-08-21T09:31:39.423Z,21.70
2017-08-21T09:34:06.942Z,21.90
2017-08-21T09:36:34.452Z,21.90
2017-08-21T09:39:01.939Z,21.80
2017-08-21T09:41:29.586Z,22.30
2017-08-21T09:43:57.086Z,22.50
2017-08-21T09:46:24.564Z,22.80
2017-08-21T09:48:52.055Z,23.00
2017-08-21T09:51:19.575Z,23.30
2017-08-21T09:53:47.097Z,23.60
2017-08-21T09:56:14.646Z,23.80
2017-08-21T09:58:42.311Z,24.20
2017-08-21T10:01:10.196Z,24.80
2017-08-21T10:03:37.938Z,24.90
2017-08-21T10:06:05.551Z,24.90
2017-08-21T10:08:33.128Z,24.90
2017-08-21T10:11:00.644Z,24.80
2017-08-21T10:13:56.078Z,24.50
2017-08-21T10:16:23.710Z,25.10
2017-08-21T10:18:51.501Z,26.00
2017-08-21T10:21:19.297Z,26.00
2017-08-21T10:23:47.064Z,25.40
2017-08-21T10:26:14.568Z,25.10
2017-08-21T10:28:42.069Z,24.90
2017-08-21T10:31:09.589Z,24.70
2017-08-21T10:33:37.072Z,24.30
2017-08-21T10:36:04.655Z,24.00
2017-08-21T10:38:32.224Z,23.90
2017-08-21T10:40:59.890Z,24.00
2017-08-21T10:43:27.396Z,24.90
2017-08-21T10:45:55.166Z,26.50
2017-08-21T10:48:22.862Z,28.40
2017-08-21T10:50:51.124Z,31.90
2017-08-21T10:53:18.604Z,31.80
2017-08-21T10:55:46.107Z,32.80
2017-08-21T10:58:13.587Z,33.60
2017-08-21T11:00:41.113Z,33.80
2017-08-21T11:03:08.812Z,34.10
2017-08-21T11:05:36.460Z,33.60
2017-08-21T11:08:03.984Z,31.40
2017-08-21T11:10:31.461Z,31.60
2017-08-21T11:12:59.061Z,31.50
2017-08-21T11:15:26.562Z,31.40
2017-08-21T11:17:54.087Z,31.00
2017-08-21T11:20:21.879Z,30.60
2017-08-21T11:22:49.384Z,29.20
2017-08-21T11:25:17.064Z,28.30
2017-08-21T11:27:44.599Z,27.60
2017-08-21T11:30:12.129Z,26.90
2017-08-21T11:32:39.833Z,26.40
2017-08-21T11:35:07.420Z,25.60
2017-08-21T11:37:35.104Z,24.90
2017-08-21T11:40:02.710Z,24.50
2017-08-21T11:42:32.187Z,23.90
2017-08-21T11:44:59.691Z,23.80
2017-08-21T11:47:27.223Z,23.50
2017-08-21T11:49:54.697Z,23.40
2017-08-21T11:52:22.420Z,23.30
2017-08-21T11:54:49.952Z,23.20
2017-08-21T11:57:17.476Z,23.20
2017-08-21T11:59:45.169Z,23.20
2017-08-21T12:02:12.704Z,23.20
2017-08-21T12:04:40.355Z,23.30
2017-08-21T12:07:07.830Z,23.40
2017-08-21T12:09:35.504Z,23.30
2017-08-21T12:12:03.105Z,23.30
2017-08-21T12:14:30.646Z,23.40
2017-08-21T12:16:58.589Z,23.50
2017-08-21T12:19:26.063Z,23.50
2017-08-21T12:21:53.545Z,23.60
2017-08-21T12:24:21.093Z,23.50
2017-08-21T12:26:48.645Z,23.50
2017-08-21T12:29:16.127Z,23.50
2017-08-21T12:31:43.627Z,23.30
2017-08-21T12:34:11.644Z,23.20
2017-08-21T12:36:40.086Z,23.10
2017-08-21T12:39:07.596Z,23.10
2017-08-21T12:41:35.117Z,23.00
2017-08-21T12:44:02.727Z,23.10
2017-08-21T12:46:30.316Z,23.00
2017-08-21T12:48:57.798Z,23.10
2017-08-21T12:51:25.293Z,23.10
2017-08-21T12:53:52.787Z,23.10
2017-08-21T12:56:20.257Z,23.20
2017-08-21T12:58:47.814Z,23.10
2017-08-21T13:01:15.330Z,23.00
2017-08-21T13:03:42.845Z,23.00
2017-08-21T13:06:10.723Z,23.00
2017-08-21T13:08:38.231Z,23.00
2017-08-21T13:11:05.720Z,22.90
2017-08-21T13:13:33.649Z,22.80
2017-08-21T13:16:01.166Z,22.60
2017-08-21T13:18:28.645Z,22.40
2017-08-21T13:20:56.184Z,22.20
2017-08-21T13:23:23.685Z,22.10
2017-08-21T13:25:51.188Z,22.10
2017-08-21T13:28:18.673Z,22.10
2017-08-21T13:30:46.196Z,22.10
2017-08-21T13:33:13.727Z,22.10
2017-08-21T13:35:41.625Z,22.20
2017-08-21T13:38:09.185Z,22.30
2017-08-21T13:40:36.859Z,22.30
2017-08-21T13:43:05.196Z,22.50
2017-08-21T13:45:32.659Z,22.40
2017-08-21T13:48:00.356Z,22.40
2017-08-21T13:50:27.865Z,22.40
2017-08-21T13:52:55.502Z,22.30
2017-08-21T13:55:23.034Z,22.20
2017-08-21T13:57:50.495Z,22.10
2017-08-21T14:00:17.983Z,22.10
2017-08-21T14:02:45.472Z,22.10
2017-08-21T14:05:12.963Z,22.00
2017-08-21T14:07:40.526Z,21.90
2017-08-21T14:10:08.056Z,21.70
2017-08-21T14:12:35.781Z,21.60
2017-08-21T14:15:03.346Z,21.60
2017-08-21T14:17:30.834Z,21.70
2017-08-21T14:19:58.327Z,21.70
2017-08-21T14:22:26.052Z,21.80
2017-08-21T14:24:53.576Z,21.90
2017-08-21T14:27:21.474Z,22.00
2017-08-21T14:29:49.059Z,22.00
2017-08-21T14:32:16.646Z,22.10
2017-08-21T14:34:44.291Z,22.10
2017-08-21T14:37:12.177Z,22.00
2017-08-21T14:39:40.027Z,21.90
2017-08-21T14:42:07.664Z,21.90
2017-08-21T14:44:35.152Z,21.80
2017-08-21T14:47:02.882Z,21.80
2017-08-21T14:49:31.547Z,21.80
2017-08-21T14:51:59.081Z,21.70
2017-08-21T14:54:27.521Z,21.50
2017-08-21T14:56:55.086Z,21.40
2017-08-21T14:59:22.579Z,21.40
2017-08-21T15:01:50.063Z,21.40
2017-08-21T15:04:17.561Z,21.30
2017-08-21T15:06:45.064Z,21.40
2017-08-21T15:09:12.575Z,21.20
2017-08-21T15:11:40.426Z,21.30
2017-08-21T15:14:07.941Z,21.20
2017-08-21T15:16:35.464Z,21.20
2017-08-21T15:19:03.124Z,21.20
2017-08-21T15:21:30.607Z,21.10
2017-08-21T15:23:58.120Z,21.10
2017-08-21T15:26:25.679Z,21.00
2017-08-21T15:28:53.676Z,21.00
2017-08-21T15:31:21.142Z,21.10
2017-08-21T15:33:48.873Z,21.10
2017-08-21T15:36:16.390Z,21.10
2017-08-21T15:38:43.912Z,21.10
2017-08-21T15:41:11.546Z,21.20
2017-08-21T15:43:39.168Z,21.20
2017-08-21T15:46:06.744Z,21.10
2017-08-21T15:48:34.216Z,21.10
2017-08-21T15:51:01.982Z,21.10
2017-08-21T15:53:29.595Z,21.10
2017-08-21T15:55:57.945Z,21.20
2017-08-21T15:58:25.490Z,21.10
2017-08-21T16:00:52.987Z,21.10
2017-08-21T16:03:21.993Z,21.10
2017-08-21T16:05:49.504Z,21.10
2017-08-21T16:08:17.075Z,21.10
2017-08-21T16:10:44.562Z,21.10
2017-08-21T16:13:12.114Z,21.10
2017-08-21T16:15:41.741Z,21.00
2017-08-21T16:18:09.222Z,21.00
2017-08-21T16:20:36.734Z,21.00
2017-08-21T16:23:04.194Z,21.00
2017-08-21T16:25:31.771Z,20.90
2017-08-21T16:27:59.308Z,20.80
2017-08-21T16:30:26.928Z,20.80
2017-08-21T16:32:54.542Z,20.80
2017-08-21T16:35:22.073Z,20.80
2017-08-21T16:37:49.571Z,20.80
2017-08-21T16:40:17.050Z,20.80
2017-08-21T16:42:44.620Z,20.70
2017-08-21T16:45:12.101Z,20.70
2017-08-21T16:47:39.788Z,20.70
2017-08-21T16:50:07.314Z,20.70
2017-08-21T16:52:34.893Z,20.70
2017-08-21T16:55:02.379Z,20.70
2017-08-21T16:57:29.857Z,20.70
2017-08-21T16:59:57.369Z,20.80
2017-08-21T17:02:24.874Z,20.80
2017-08-21T17:04:52.455Z,20.60
2017-08-21T17:07:19.952Z,20.50
2017-08-21T17:09:47.999Z,20.50
2017-08-21T17:12:15.567Z,20.40
2017-08-21T17:14:43.072Z,20.40
2017-08-21T17:17:11.040Z,20.30
2017-08-21T17:19:38.556Z,20.30
2017-08-21T17:22:06.110Z,20.20
2017-08-21T17:24:33.604Z,20.20
2017-08-21T17:27:01.142Z,20.10
2017-08-21T17:29:28.619Z,20.20
2017-08-21T17:31:56.096Z,20.20
2017-08-21T17:34:23.764Z,20.10
2017-08-21T17:36:51.249Z,20.00
2017-08-21T17:39:18.830Z,20.00
2017-08-21T17:41:46.420Z,20.00
2017-08-21T17:44:13.909Z,19.90
2017-08-21T17:46:41.577Z,19.90
2017-08-21T17:49:09.225Z,20.00
2017-08-21T17:51:36.728Z,19.90
2017-08-21T17:54:04.295Z,19.80
2017-08-21T17:56:31.971Z,19.70
2017-08-21T17:58:59.616Z,19.70
2017-08-21T18:01:27.125Z,19.70
2017-08-21T18:03:54.732Z,19.60
2017-08-21T18:06:22.452Z,19.60
2017-08-21T18:08:49.951Z,19.50
2017-08-21T18:11:17.435Z,19.50
2017-08-21T18:13:44.950Z,19.50
2017-08-21T18:16:12.675Z,19.50
2017-08-21T18:18:40.308Z,19.50
2017-08-21T18:21:07.788Z,19.50
2017-08-21T18:23:35.342Z,19.50
2017-08-21T18:26:03.097Z,19.40
2017-08-21T18:28:30.643Z,19.40
2017-08-21T18:30:58.180Z,19.40
2017-08-21T18:33:25.669Z,19.30
2017-08-21T18:35:53.152Z,19.30
2017-08-21T18:38:20.706Z,19.30
2017-08-21T18:40:49.013Z,19.20
2017-08-21T18:43:16.570Z,19.20
2017-08-21T18:45:44.098Z,19.20
2017-08-21T18:48:11.889Z,19.20
2017-08-21T18:50:39.392Z,19.10
2017-08-21T18:53:06.876Z,19.10
2017-08-21T18:55:34.415Z,19.00
2017-08-21T18:58:01.945Z,19.00
2017-08-21T19:00:29.671Z,18.90
2017-08-21T19:02:57.194Z,18.90
2017-08-21T19:05:24.702Z,18.90
2017-08-21T19:07:52.245Z,18.80
2017-08-21T19:10:19.839Z,18.80
2017-08-21T19:12:47.391Z,18.70
2017-08-21T19:15:14.919Z,18.70
2017-08-21T19:17:42.403Z,18.70
2017-08-21T19:20:10.626Z,18.70
2017-08-21T19:22:38.128Z,18.60
2017-08-21T19:25:05.656Z,18.60
2017-08-21T19:27:33.134Z,18.60
2017-08-21T19:30:00.942Z,18.50
2017-08-21T19:32:28.436Z,18.50
2017-08-21T19:34:56.044Z,18.50
2017-08-21T19:37:23.599Z,18.40
2017-08-21T19:39:51.068Z,18.40
2017-08-21T19:42:18.565Z,18.40
2017-08-21T19:44:46.081Z,18.40
2017-08-21T19:47:13.605Z,18.30
2017-08-21T19:49:41.125Z,18.30
2017-08-21T19:52:08.670Z,18.30
2017-08-21T19:54:36.265Z,18.20
2017-08-21T19:57:03.808Z,18.20
2017-08-21T19:59:31.326Z,18.20
2017-08-21T20:01:58.888Z,18.10
2017-08-21T20:04:26.384Z,18.10
2017-08-21T20:06:53.920Z,18.10
2017-08-21T20:09:22.445Z,18.10
2017-08-21T20:11:49.969Z,18.10
2017-08-21T20:14:17.524Z,18.00
2017-08-21T20:16:45.053Z,18.00
2017-08-21T20:19:12.605Z,18.00
2017-08-21T20:21:40.586Z,18.00
2017-08-21T20:24:08.136Z,17.90
2017-08-21T20:26:35.614Z,17.90
2017-08-21T20:29:03.191Z,17.90
2017-08-21T20:31:30.701Z,17.80
2017-08-21T20:33:58.255Z,17.80
2017-08-21T20:36:25.785Z,17.80
2017-08-21T20:38:53.313Z,17.80
2017-08-21T20:41:20.885Z,17.70
2017-08-21T20:43:48.358Z,17.70
2017-08-21T20:46:15.842Z,17.60
2017-08-21T20:48:43.393Z,17.50
2017-08-21T20:51:11.035Z,17.50
2017-08-21T20:53:38.541Z,17.50
2017-08-21T20:56:06.043Z,17.50
2017-08-21T20:58:33.537Z,17.50
2017-08-21T21:01:01.165Z,17.50
2017-08-21T21:03:28.702Z,17.40
2017-08-21T21:05:56.183Z,17.40
2017-08-21T21:08:23.682Z,17.40
2017-08-21T21:10:51.312Z,17.40
2017-08-21T21:13:18.834Z,17.30
2017-08-21T21:15:46.326Z,17.30
2017-08-21T21:18:13.876Z,17.30
2017-08-21T21:20:41.363Z,17.20
2017-08-21T21:23:08.855Z,17.20
2017-08-21T21:25:36.355Z,17.20
2017-08-21T21:28:04.066Z,17.10
2017-08-21T21:30:31.626Z,17.10
2017-08-21T21:32:59.100Z,17.10
2017-08-21T21:35:26.743Z,17.00
2017-08-21T21:37:54.210Z,17.00
2017-08-21T21:40:21.754Z,16.90
2017-08-21T21:42:49.268Z,16.90
2017-08-21T21:45:16.768Z,16.90
2017-08-21T21:47:45.053Z,16.90
2017-08-21T21:50:21.526Z,16.80
2017-08-21T21:52:59.133Z,16.70
2017-08-21T21:55:34.882Z,16.70
2017-08-21T21:58:28.624Z,16.70
2017-08-21T22:09:16.657Z,16.60
2017-08-21T22:11:44.185Z,16.60
2017-08-21T22:14:12.894Z,16.60
2017-08-21T22:16:40.442Z,16.50
2017-08-21T22:19:07.989Z,16.50
2017-08-21T22:21:35.543Z,16.50
2017-08-21T22:24:03.086Z,16.50
2017-08-21T22:26:30.596Z,16.50
2017-08-21T22:28:58.085Z,16.50
2017-08-21T22:31:25.844Z,16.40
2017-08-21T22:33:53.523Z,16.40
2017-08-21T22:36:21.031Z,16.40
2017-08-21T22:38:48.675Z,16.30
2017-08-21T22:41:16.249Z,16.30
2017-08-21T22:43:43.929Z,16.30
2017-08-21T22:46:11.859Z,16.30
2017-08-21T22:48:39.417Z,16.30
2017-08-21T22:51:07.016Z,16.20
2017-08-21T22:53:34.517Z,16.20
2017-08-21T22:56:02.118Z,16.20
2017-08-21T22:58:29.651Z,16.20
2017-08-21T23:00:57.185Z,16.20
2017-08-21T23:03:24.807Z,16.20
2017-08-21T23:05:52.305Z,16.20
2017-08-21T23:08:19.862Z,16.10
2017-08-21T23:10:47.374Z,16.30
2017-08-21T23:13:14.881Z,16.20
2017-08-21T23:15:42.396Z,16.10
2017-08-21T23:18:10.153Z,16.10
2017-08-21T23:20:37.646Z,16.00
2017-08-21T23:23:05.150Z,16.00
2017-08-21T23:25:32.638Z,16.00
2017-08-21T23:28:00.132Z,16.00
2017-08-21T23:30:27.614Z,16.00
2017-08-21T23:32:55.140Z,16.00
2017-08-21T23:35:22.609Z,16.00
2017-08-21T23:37:50.102Z,16.00
2017-08-21T23:40:17.591Z,15.90
2017-08-21T23:42:45.076Z,16.00
2017-08-21T23:45:12.586Z,15.90
2017-08-21T23:47:40.159Z,15.90
2017-08-21T23:50:07.635Z,15.90
2017-08-21T23:52:35.153Z,15.90
2017-08-21T23:55:02.672Z,15.90
2017-08-21T23:57:30.155Z,15.90
2017-08-21T23:59:57.785Z,15.90
